Time,TemperatureF,DewpointF,PressureIn,WindDirection,WindDirectionDegrees,WindSpeedMPH,WindSpeedGustMPH,Humidity,HourlyPrecipIn,Conditions,Clouds,dailyrainin,SolarRadiationWatts/m^2,SoftwareType,DateUTC
2013-10-19 00:01:00,47.6,43.9,29.78,South,180,4.0,4.0,87,0.00,,,0.00,0,Wunderground v.1.15,2013-10-19 04:01:00,
2013-10-19 00:02:00,47.6,43.9,29.78,South,173,4.0,4.0,87,0.00,,,0.00,0,Wunderground v.1.15,2013-10-19 04:02:00,
2013-10-19 00:03:00,47.6,43.9,29.78,South,178,4.0,6.0,87,0.00,,,0.00,0,Wunderground v.1.15,2013-10-19 04:03:00,
2013-10-19 00:05:00,47.6,43.9,29.78,South,176,4.0,6.0,87,0.00,,,0.00,0,Wunderground v.1.15,2013-10-19 04:05:00,
2013-10-19 00:08:00,47.6,43.9,29.78,SSW,196,4.0,8.0,87,0.00,,,0.00,0,Wunderground v.1.15,2013-10-19 04:08:00,
2013-10-19 00:10:00,47.7,44.0,29.78,South,182,5.0,5.0,87,0.00,,,0.00,0,Wunderground v.1.15,2013-10-19 04:10:00,
2013-10-19 00:16:00,47.7,44.0,29.78,SSW,192,4.0,6.0,87,0.00,,,0.00,0,Wunderground v.1.15,2013-10-19 04:16:00,
2013-10-19 00:22:00,47.8,44.1,29.78,South,178,3.0,3.0,87,0.00,,,0.00,0,Wunderground v.1.15,2013-10-19 04:22:00,
2013-10-19 00:28:00,47.8,44.1,29.78,South,191,3.0,5.0,87,0.00,,,0.00,0,Wunderground v.1.15,2013-10-19 04:28:00,
2013-10-19 00:34:00,47.9,44.2,29.78,South,181,4.0,8.0,87,0.00,,,0.00,0,Wunderground v.1.15,2013-10-19 04:34:00,
2013-10-19 00:40:00,48.0,44.3,29.78,South,181,4.0,4.0,87,0.00,,,0.00,0,Wunderground v.1.15,2013-10-19 04:40:00,
2013-10-19 00:46:00,48.0,44.3,29.78,South,179,3.0,4.0,87,0.00,,,0.00,0,Wunderground v.1.15,2013-10-19 04:46:00,
2013-10-19 00:51:00,47.9,44.2,29.78,South,179,2.0,4.0,87,0.00,,,0.00,0,Wunderground v.1.15,2013-10-19 04:51:00,
2013-10-19 00:57:00,47.7,44.0,29.78,South,186,2.0,4.0,87,0.00,,,0.00,0,Wunderground v.1.15,2013-10-19 04:57:00,
2013-10-19 01:03:00,47.6,44.2,29.78,South,184,1.0,4.0,88,0.00,,,0.00,0,Wunderground v.1.15,2013-10-19 05:03:00,
2013-10-19 01:09:00,47.4,44.3,29.78,SSW,208,1.0,4.0,89,0.00,,,0.01,0,Wunderground v.1.15,2013-10-19 05:09:00,
2013-10-19 01:15:00,47.2,44.1,29.77,WSW,244,0.0,1.0,89,0.00,,,0.01,0,Wunderground v.1.15,2013-10-19 05:15:00,
2013-10-19 01:21:00,47.0,44.2,29.77,SW,231,0.0,1.0,90,0.00,,,0.01,0,Wunderground v.1.15,2013-10-19 05:21:00,
2013-10-19 01:27:00,46.9,44.4,29.77,SW,230,0.0,1.0,91,0.00,,,0.01,0,Wunderground v.1.15,2013-10-19 05:27:00,
2013-10-19 01:32:00,46.8,44.3,29.77,SSW,195,0.0,1.0,91,0.00,,,0.01,0,Wunderground v.1.15,2013-10-19 05:32:00,
2013-10-19 01:38:00,46.7,44.2,29.77,South,190,0.0,4.0,91,0.00,,,0.01,0,Wunderground v.1.15,2013-10-19 05:38:00,
2013-10-19 01:44:00,46.5,44.3,29.77,South,190,0.0,1.0,92,0.00,,,0.01,0,Wunderground v.1.15,2013-10-19 05:44:00,
2013-10-19 01:50:00,46.4,44.2,29.77,South,190,0.0,1.0,92,0.00,,,0.01,0,Wunderground v.1.15,2013-10-19 05:50:00,
2013-10-19 01:56:00,46.4,44.2,29.77,SW,225,0.0,1.0,92,0.00,,,0.01,0,Wunderground v.1.15,2013-10-19 05:56:00,
2013-10-19 02:02:00,46.3,44.1,29.77,WSW,250,0.0,1.0,92,0.00,,,0.01,0,Wunderground v.1.15,2013-10-19 06:02:00,
2013-10-19 02:08:00,46.4,44.2,29.77,SSE,162,0.0,1.0,92,0.00,,,0.01,0,Wunderground v.1.15,2013-10-19 06:08:00,
2013-10-19 02:13:00,46.3,44.1,29.77,SSW,192,0.0,1.0,92,0.00,,,0.01,0,Wunderground v.1.15,2013-10-19 06:13:00,
2013-10-19 02:19:00,46.2,44.0,29.77,SSW,192,0.0,1.0,92,0.00,,,0.01,0,Wunderground v.1.15,2013-10-19 06:19:00,
2013-10-19 02:24:00,46.1,43.9,29.76,SSW,206,0.0,1.0,92,0.00,,,0.01,0,Wunderground v.1.15,2013-10-19 06:24:00,
2013-10-19 02:30:00,46.0,43.8,29.76,SSW,206,0.0,1.0,92,0.00,,,0.01,0,Wunderground v.1.15,2013-10-19 06:30:00,
2013-10-19 02:36:00,45.9,43.7,29.76,North,351,0.0,1.0,92,0.00,,,0.01,0,Wunderground v.1.15,2013-10-19 06:36:00,
2013-10-19 02:42:00,45.8,43.6,29.76,North,351,0.0,1.0,92,0.00,,,0.01,0,Wunderground v.1.15,2013-10-19 06:42:00,
2013-10-19 02:48:00,45.8,43.6,29.76,North,351,0.0,1.0,92,0.00,,,0.01,0,Wunderground v.1.15,2013-10-19 06:48:00,
2013-10-19 02:54:00,45.7,43.5,29.75,WNW,289,0.0,1.0,92,0.00,,,0.01,0,Wunderground v.1.15,2013-10-19 06:54:00,
2013-10-19 02:59:00,45.7,43.5,29.75,WNW,289,0.0,1.0,92,0.00,,,0.01,0,Wunderground v.1.15,2013-10-19 06:59:00,
2013-10-19 03:05:00,45.7,43.5,29.76,WNW,289,0.0,1.0,92,0.00,,,0.01,0,Wunderground v.1.15,2013-10-19 07:05:00,
2013-10-19 03:11:00,45.7,43.5,29.75,WNW,289,0.0,1.0,92,0.00,,,0.01,0,Wunderground v.1.15,2013-10-19 07:11:00,
2013-10-19 03:17:00,45.7,43.5,29.75,WNW,289,0.0,1.0,92,0.00,,,0.01,0,Wunderground v.1.15,2013-10-19 07:17:00,
2013-10-19 03:23:00,45.7,43.5,29.75,WNW,289,0.0,1.0,92,0.00,,,0.01,0,Wunderground v.1.15,2013-10-19 07:23:00,
2013-10-19 03:29:00,45.7,43.5,29.75,WNW,289,0.0,1.0,92,0.00,,,0.01,0,Wunderground v.1.15,2013-10-19 07:29:00,
2013-10-19 03:35:00,45.8,43.3,29.75,WNW,289,0.0,1.0,91,0.00,,,0.01,0,Wunderground v.1.15,2013-10-19 07:35:00,
2013-10-19 03:40:00,45.9,43.4,29.75,WNW,289,0.0,1.0,91,0.00,,,0.01,0,Wunderground v.1.15,2013-10-19 07:40:00,
2013-10-19 03:46:00,46.0,43.5,29.75,SSW,210,0.0,1.0,91,0.00,,,0.01,0,Wunderground v.1.15,2013-10-19 07:46:00,
2013-10-19 03:52:00,46.2,43.7,29.75,South,170,1.0,5.0,91,0.00,,,0.01,0,Wunderground v.1.15,2013-10-19 07:52:00,
2013-10-19 03:58:00,46.3,43.8,29.75,South,173,1.0,5.0,91,0.00,,,0.01,0,Wunderground v.1.15,2013-10-19 07:58:00,
2013-10-19 04:04:00,46.3,43.8,29.75,South,182,2.0,6.0,91,0.00,,,0.01,0,Wunderground v.1.15,2013-10-19 08:04:00,
2013-10-19 04:10:00,46.3,43.8,29.75,South,180,3.0,4.0,91,0.00,,,0.01,0,Wunderground v.1.15,2013-10-19 08:10:00,
2013-10-19 04:16:00,46.1,43.6,29.75,South,182,3.0,5.0,91,0.00,,,0.01,0,Wunderground v.1.15,2013-10-19 08:16:00,
2013-10-19 04:22:00,46.1,43.6,29.75,South,182,2.0,5.0,91,0.00,,,0.01,0,Wunderground v.1.15,2013-10-19 08:22:00,
2013-10-19 04:28:00,46.1,43.6,29.75,South,169,3.0,8.0,91,0.00,,,0.01,0,Wunderground v.1.15,2013-10-19 08:28:00,
2013-10-19 04:34:00,46.1,43.9,29.74,South,186,3.0,4.0,92,0.00,,,0.01,0,Wunderground v.1.15,2013-10-19 08:34:00,
2013-10-19 04:39:00,46.0,43.8,29.74,South,186,2.0,4.0,92,0.00,,,0.01,0,Wunderground v.1.15,2013-10-19 08:39:00,
2013-10-19 04:45:00,46.0,43.8,29.74,SE,142,1.0,1.0,92,0.00,,,0.01,0,Wunderground v.1.15,2013-10-19 08:45:00,
2013-10-19 04:51:00,45.8,43.6,29.74,WSW,240,0.0,1.0,92,0.00,,,0.01,0,Wunderground v.1.15,2013-10-19 08:51:00,
2013-10-19 04:56:00,45.8,43.6,29.74,WSW,240,0.0,1.0,92,0.00,,,0.01,0,Wunderground v.1.15,2013-10-19 08:56:00,
2013-10-19 05:02:00,45.7,43.5,29.74,WSW,240,0.0,1.0,92,0.00,,,0.01,0,Wunderground v.1.15,2013-10-19 09:02:00,
2013-10-19 05:08:00,45.7,43.5,29.74,WSW,240,0.0,1.0,92,0.00,,,0.01,0,Wunderground v.1.15,2013-10-19 09:08:00,
2013-10-19 05:14:00,45.7,43.5,29.74,SW,225,0.0,2.0,92,0.00,,,0.01,0,Wunderground v.1.15,2013-10-19 09:14:00,
2013-10-19 05:20:00,45.6,43.4,29.74,South,190,0.0,1.0,92,0.00,,,0.01,0,Wunderground v.1.15,2013-10-19 09:20:00,
2013-10-19 05:25:00,45.6,43.4,29.74,South,188,0.0,3.0,92,0.00,,,0.01,0,Wunderground v.1.15,2013-10-19 09:25:00,
2013-10-19 05:31:00,45.5,43.3,29.74,SW,224,0.0,1.0,92,0.00,,,0.01,0,Wunderground v.1.15,2013-10-19 09:31:00,
2013-10-19 05:36:00,45.5,43.3,29.74,NNW,328,0.0,1.0,92,0.00,,,0.01,0,Wunderground v.1.15,2013-10-19 09:36:00,
2013-10-19 05:42:00,45.4,43.2,29.74,NW,304,0.0,1.0,92,0.00,,,0.01,0,Wunderground v.1.15,2013-10-19 09:42:00,
2013-10-19 05:47:00,45.3,43.1,29.74,NW,304,0.0,1.0,92,0.00,,,0.01,0,Wunderground v.1.15,2013-10-19 09:47:00,
2013-10-19 05:53:00,45.2,43.0,29.73,NW,304,0.0,1.0,92,0.00,,,0.01,0,Wunderground v.1.15,2013-10-19 09:53:00,
2013-10-19 05:59:00,45.1,42.9,29.73,West,277,0.0,1.0,92,0.00,,,0.01,0,Wunderground v.1.15,2013-10-19 09:59:00,
2013-10-19 06:05:00,45.0,42.8,29.73,West,262,0.0,1.0,92,0.00,,,0.01,0,Wunderground v.1.15,2013-10-19 10:05:00,
2013-10-19 06:10:00,45.0,42.8,29.73,West,262,0.0,1.0,92,0.00,,,0.01,0,Wunderground v.1.15,2013-10-19 10:10:00,
2013-10-19 06:16:00,44.9,42.7,29.73,West,262,0.0,1.0,92,0.00,,,0.01,0,Wunderground v.1.15,2013-10-19 10:16:00,
2013-10-19 06:21:00,44.9,42.7,29.73,West,263,0.0,1.0,92,0.00,,,0.01,0,Wunderground v.1.15,2013-10-19 10:21:00,
2013-10-19 06:27:00,44.8,42.6,29.73,West,263,0.0,1.0,92,0.00,,,0.01,0,Wunderground v.1.15,2013-10-19 10:27:00,
2013-10-19 06:32:00,44.8,42.6,29.73,West,262,0.0,1.0,92,0.00,,,0.01,0,Wunderground v.1.15,2013-10-19 10:32:00,
2013-10-19 06:38:00,44.8,42.6,29.73,West,262,0.0,1.0,92,0.00,,,0.01,0,Wunderground v.1.15,2013-10-19 10:38:00,
2013-10-19 06:44:00,44.7,42.5,29.73,SW,218,0.0,1.0,92,0.00,,,0.01,0,Wunderground v.1.15,2013-10-19 10:44:00,
2013-10-19 06:49:00,44.7,42.5,29.73,SW,222,0.0,1.0,92,0.00,,,0.01,0,Wunderground v.1.15,2013-10-19 10:49:00,
2013-10-19 06:55:00,44.6,42.4,29.73,SW,222,0.0,1.0,92,0.00,,,0.01,0,Wunderground v.1.15,2013-10-19 10:55:00,
2013-10-19 07:01:00,44.5,42.3,29.72,SW,222,0.0,1.0,92,0.00,,,0.01,0,Wunderground v.1.15,2013-10-19 11:01:00,
2013-10-19 07:07:00,44.5,42.3,29.72,SW,222,0.0,1.0,92,0.00,,,0.01,0,Wunderground v.1.15,2013-10-19 11:07:00,
2013-10-19 07:13:00,44.4,42.2,29.72,SW,222,0.0,1.0,92,0.00,,,0.01,0,Wunderground v.1.15,2013-10-19 11:13:00,
2013-10-19 07:19:00,44.4,42.2,29.72,ENE,57,0.0,1.0,92,0.00,,,0.01,0,Wunderground v.1.15,2013-10-19 11:19:00,
2013-10-19 07:24:00,44.3,42.1,29.72,ENE,57,0.0,1.0,92,0.00,,,0.01,0,Wunderground v.1.15,2013-10-19 11:24:00,
2013-10-19 07:30:00,44.3,42.1,29.72,ENE,57,0.0,1.0,92,0.00,,,0.01,0,Wunderground v.1.15,2013-10-19 11:30:00,
2013-10-19 07:36:00,44.3,42.1,29.72,ENE,57,0.0,1.0,92,0.00,,,0.01,0,Wunderground v.1.15,2013-10-19 11:36:00,
2013-10-19 07:42:00,44.2,42.0,29.72,ENE,57,0.0,1.0,92,0.00,,,0.01,0,Wunderground v.1.15,2013-10-19 11:42:00,
2013-10-19 07:48:00,44.1,41.9,29.72,ENE,57,0.0,1.0,92,0.00,,,0.01,0,Wunderground v.1.15,2013-10-19 11:48:00,
2013-10-19 07:54:00,44.1,41.9,29.72,North,5,0.0,1.0,92,0.00,,,0.01,0,Wunderground v.1.15,2013-10-19 11:54:00,
2013-10-19 08:00:00,44.0,41.8,29.71,North,5,0.0,1.0,92,0.00,,,0.01,0,Wunderground v.1.15,2013-10-19 12:00:00,
2013-10-19 08:06:00,44.0,41.8,29.71,North,5,0.0,1.0,92,0.00,,,0.01,0,Wunderground v.1.15,2013-10-19 12:06:00,
2013-10-19 08:12:00,43.9,41.7,29.71,North,5,0.0,1.0,92,0.00,,,0.01,5,Wunderground v.1.15,2013-10-19 12:12:00,
2013-10-19 08:17:00,43.8,41.6,29.71,North,5,0.0,1.0,92,0.00,,,0.01,5,Wunderground v.1.15,2013-10-19 12:17:00,
2013-10-19 08:23:00,43.8,41.6,29.71,North,5,0.0,1.0,92,0.00,,,0.01,11,Wunderground v.1.15,2013-10-19 12:23:00,
2013-10-19 08:29:00,43.8,41.6,29.71,North,5,0.0,1.0,92,0.00,,,0.01,14,Wunderground v.1.15,2013-10-19 12:29:00,
2013-10-19 08:35:00,43.7,41.5,29.71,North,5,0.0,1.0,92,0.00,,,0.01,16,Wunderground v.1.15,2013-10-19 12:35:00,
2013-10-19 08:41:00,43.7,41.5,29.71,North,5,0.0,1.0,92,0.00,,,0.01,19,Wunderground v.1.15,2013-10-19 12:41:00,
2013-10-19 08:47:00,43.7,41.5,29.71,SSW,213,0.0,1.0,92,0.00,,,0.01,25,Wunderground v.1.15,2013-10-19 12:47:00,
2013-10-19 08:53:00,43.7,41.5,29.71,SSW,213,0.0,1.0,92,0.00,,,0.01,25,Wunderground v.1.15,2013-10-19 12:53:00,
2013-10-19 08:58:00,43.8,41.6,29.71,SW,215,0.0,1.0,92,0.00,,,0.01,28,Wunderground v.1.15,2013-10-19 12:58:00,
2013-10-19 09:04:00,43.8,41.6,29.71,WSW,241,0.0,1.0,92,0.00,,,0.01,33,Wunderground v.1.15,2013-10-19 13:04:00,
2013-10-19 09:10:00,43.8,41.6,29.72,WSW,241,0.0,1.0,92,0.00,,,0.01,47,Wunderground v.1.15,2013-10-19 13:10:00,
2013-10-19 09:16:00,43.9,41.7,29.72,WSW,241,0.0,1.0,92,0.00,,,0.01,46,Wunderground v.1.15,2013-10-19 13:16:00,
2013-10-19 09:22:00,44.0,41.8,29.72,WSW,241,0.0,1.0,92,0.00,,,0.01,54,Wunderground v.1.15,2013-10-19 13:22:00,
2013-10-19 09:27:00,44.2,42.0,29.72,WSW,241,0.0,1.0,92,0.00,,,0.01,53,Wunderground v.1.15,2013-10-19 13:27:00,
2013-10-19 09:33:00,44.3,42.1,29.72,WSW,241,0.0,1.0,92,0.00,,,0.01,62,Wunderground v.1.15,2013-10-19 13:33:00,
2013-10-19 09:39:00,44.5,42.3,29.72,South,177,0.0,2.0,92,0.00,,,0.01,60,Wunderground v.1.15,2013-10-19 13:39:00,
2013-10-19 09:45:00,44.6,42.1,29.72,South,177,0.0,2.0,91,0.00,,,0.01,56,Wunderground v.1.15,2013-10-19 13:45:00,
2013-10-19 09:50:00,44.8,42.3,29.72,South,184,1.0,1.0,91,0.00,,,0.01,58,Wunderground v.1.15,2013-10-19 13:50:00,
2013-10-19 09:56:00,45.1,42.6,29.72,South,182,1.0,5.0,91,0.00,,,0.01,58,Wunderground v.1.15,2013-10-19 13:56:00,
2013-10-19 10:01:00,45.2,42.4,29.72,SSE,168,1.0,1.0,90,0.00,,,0.01,51,Wunderground v.1.15,2013-10-19 14:01:00,
2013-10-19 10:07:00,45.3,42.5,29.72,SSE,168,0.0,1.0,90,0.00,,,0.01,62,Wunderground v.1.15,2013-10-19 14:07:00,
2013-10-19 10:13:00,45.5,42.4,29.72,SSW,207,0.0,1.0,89,0.00,,,0.01,54,Wunderground v.1.15,2013-10-19 14:13:00,
2013-10-19 10:19:00,45.6,42.5,29.72,South,173,0.0,1.0,89,0.00,,,0.01,69,Wunderground v.1.15,2013-10-19 14:19:00,
2013-10-19 10:25:00,45.7,42.3,29.72,South,173,0.0,1.0,88,0.00,,,0.01,69,Wunderground v.1.15,2013-10-19 14:25:00,
2013-10-19 10:30:00,45.8,42.2,29.72,SW,230,0.0,1.0,87,0.00,,,0.01,60,Wunderground v.1.15,2013-10-19 14:30:00,
2013-10-19 10:36:00,45.8,42.2,29.72,SW,230,0.0,1.0,87,0.00,,,0.01,72,Wunderground v.1.15,2013-10-19 14:36:00,
2013-10-19 10:42:00,46.0,42.3,29.72,SSW,198,0.0,2.0,87,0.00,,,0.01,79,Wunderground v.1.15,2013-10-19 14:42:00,
2013-10-19 10:48:00,46.1,42.4,29.72,West,267,0.0,2.0,87,0.00,,,0.01,88,Wunderground v.1.15,2013-10-19 14:48:00,
2013-10-19 10:54:00,46.3,42.6,29.72,South,190,0.0,4.0,87,0.00,,,0.01,91,Wunderground v.1.15,2013-10-19 14:54:00,
2013-10-19 10:59:00,46.2,41.9,29.71,South,183,1.0,4.0,85,0.00,,,0.01,86,Wunderground v.1.15,2013-10-19 14:59:00,
2013-10-19 11:05:00,46.3,41.7,29.71,SW,229,2.0,4.0,84,0.00,,,0.01,81,Wunderground v.1.15,2013-10-19 15:05:00,
2013-10-19 11:10:00,46.3,41.4,29.71,SW,221,2.0,3.0,83,0.00,,,0.01,74,Wunderground v.1.15,2013-10-19 15:10:00,
2013-10-19 11:16:00,46.3,41.7,29.71,South,187,3.0,8.0,84,0.00,,,0.01,74,Wunderground v.1.15,2013-10-19 15:16:00,
2013-10-19 11:21:00,46.4,41.8,29.71,South,190,4.0,4.0,84,0.00,,,0.01,76,Wunderground v.1.15,2013-10-19 15:21:00,
2013-10-19 11:27:00,46.3,41.7,29.71,South,180,4.0,6.0,84,0.00,,,0.01,79,Wunderground v.1.15,2013-10-19 15:27:00,
2013-10-19 11:33:00,46.3,41.4,29.71,South,182,4.0,9.0,83,0.00,,,0.01,84,Wunderground v.1.15,2013-10-19 15:33:00,
2013-10-19 11:38:00,46.4,41.5,29.71,SSW,202,3.0,9.0,83,0.00,,,0.01,84,Wunderground v.1.15,2013-10-19 15:38:00,
2013-10-19 11:44:00,46.5,41.6,29.70,SW,236,1.0,5.0,83,0.00,,,0.01,74,Wunderground v.1.15,2013-10-19 15:44:00,
2013-10-19 11:50:00,46.5,41.6,29.70,SSW,201,1.0,1.0,83,0.00,,,0.01,77,Wunderground v.1.15,2013-10-19 15:50:00,
2013-10-19 11:56:00,46.5,41.0,29.70,SSW,196,2.0,10.0,81,0.00,,,0.01,114,Wunderground v.1.15,2013-10-19 15:56:00,
2013-10-19 12:02:00,46.7,41.2,29.70,SSW,195,4.0,6.0,81,0.00,,,0.01,137,Wunderground v.1.15,2013-10-19 16:02:00,
2013-10-19 12:07:00,46.7,41.2,29.70,SSW,200,6.0,10.0,81,0.00,,,0.01,137,Wunderground v.1.15,2013-10-19 16:07:00,
2013-10-19 12:13:00,46.9,41.7,29.70,SW,218,4.0,5.0,82,0.00,,,0.01,125,Wunderground v.1.15,2013-10-19 16:13:00,
2013-10-19 12:18:00,47.0,41.8,29.70,SW,217,1.0,5.0,82,0.00,,,0.01,135,Wunderground v.1.15,2013-10-19 16:18:00,
2013-10-19 12:24:00,47.1,41.6,29.69,South,182,0.0,1.0,81,0.00,,,0.01,120,Wunderground v.1.15,2013-10-19 16:24:00,
2013-10-19 12:30:00,47.2,41.0,29.70,SSW,195,1.0,3.0,79,0.00,,,0.01,107,Wunderground v.1.15,2013-10-19 16:30:00,
2013-10-19 12:35:00,47.3,41.1,29.69,South,184,1.0,4.0,79,0.00,,,0.01,141,Wunderground v.1.15,2013-10-19 16:35:00,
2013-10-19 12:41:00,47.6,41.1,29.69,South,184,2.0,9.0,78,0.00,,,0.01,160,Wunderground v.1.15,2013-10-19 16:41:00,
2013-10-19 12:47:00,47.7,40.5,29.69,South,190,6.0,9.0,76,0.00,,,0.01,130,Wunderground v.1.15,2013-10-19 16:47:00,
2013-10-19 12:53:00,47.8,40.9,29.69,SW,224,3.0,5.0,77,0.00,,,0.01,84,Wunderground v.1.15,2013-10-19 16:53:00,
2013-10-19 12:58:00,47.7,40.8,29.69,SSW,200,1.0,5.0,77,0.00,,,0.01,76,Wunderground v.1.15,2013-10-19 16:58:00,
2013-10-19 13:04:00,47.5,40.6,29.69,WSW,250,1.0,1.0,77,0.00,,,0.01,93,Wunderground v.1.15,2013-10-19 17:04:00,
2013-10-19 13:10:00,47.3,40.1,29.69,South,182,1.0,5.0,76,0.00,,,0.01,93,Wunderground v.1.15,2013-10-19 17:10:00,
2013-10-19 13:15:00,47.5,40.0,29.68,WSW,248,1.0,5.0,75,0.00,,,0.01,155,Wunderground v.1.15,2013-10-19 17:15:00,
2013-10-19 13:21:00,47.9,40.4,29.68,SSW,198,2.0,2.0,75,0.00,,,0.01,116,Wunderground v.1.15,2013-10-19 17:21:00,
2013-10-19 13:27:00,48.1,39.9,29.68,SSW,211,1.0,4.0,73,0.00,,,0.01,98,Wunderground v.1.15,2013-10-19 17:27:00,
2013-10-19 13:32:00,48.3,40.0,29.68,NW,308,2.0,3.0,73,0.00,,,0.01,88,Wunderground v.1.15,2013-10-19 17:32:00,
2013-10-19 13:38:00,48.6,40.3,29.68,SSW,193,3.0,13.0,73,0.00,,,0.01,123,Wunderground v.1.15,2013-10-19 17:38:00,
2013-10-19 13:44:00,48.8,40.9,29.68,South,182,5.0,6.0,74,0.00,,,0.01,127,Wunderground v.1.15,2013-10-19 17:44:00,
2013-10-19 13:49:00,48.7,40.1,29.68,SSW,194,5.0,6.0,72,0.00,,,0.01,132,Wunderground v.1.15,2013-10-19 17:49:00,
2013-10-19 13:55:00,48.6,40.0,29.67,SSW,196,4.0,6.0,72,0.00,,,0.01,132,Wunderground v.1.15,2013-10-19 17:55:00,
2013-10-19 14:00:00,48.7,40.1,29.67,South,186,2.0,7.0,72,0.00,,,0.01,155,Wunderground v.1.15,2013-10-19 18:00:00,
2013-10-19 14:06:00,49.0,39.6,29.67,SSW,197,2.0,7.0,70,0.00,,,0.01,162,Wunderground v.1.15,2013-10-19 18:06:00,
2013-10-19 14:12:00,49.1,39.4,29.67,SW,226,2.0,3.0,69,0.00,,,0.01,144,Wunderground v.1.15,2013-10-19 18:12:00,
2013-10-19 14:17:00,49.2,39.1,29.67,South,186,4.0,9.0,68,0.00,,,0.01,155,Wunderground v.1.15,2013-10-19 18:17:00,
2013-10-19 14:23:00,49.3,38.8,29.67,South,178,7.0,9.0,67,0.00,,,0.01,160,Wunderground v.1.15,2013-10-19 18:23:00,
2013-10-19 14:28:00,49.4,39.3,29.67,South,190,8.0,9.0,68,0.00,,,0.01,165,Wunderground v.1.15,2013-10-19 18:28:00,
2013-10-19 14:34:00,49.5,39.4,29.67,South,178,8.0,12.0,68,0.00,,,0.01,125,Wunderground v.1.15,2013-10-19 18:34:00,
2013-10-19 14:40:00,49.5,39.0,29.67,South,180,8.0,8.0,67,0.00,,,0.01,72,Wunderground v.1.15,2013-10-19 18:40:00,
2013-10-19 14:46:00,49.5,39.4,29.67,SSW,196,6.0,8.0,68,0.00,,,0.01,86,Wunderground v.1.15,2013-10-19 18:46:00,
2013-10-19 14:52:00,49.3,38.4,29.67,SW,223,5.0,5.0,66,0.00,,,0.01,97,Wunderground v.1.15,2013-10-19 18:52:00,
2013-10-19 14:58:00,49.0,37.7,29.67,SW,215,4.0,8.0,65,0.00,,,0.01,83,Wunderground v.1.15,2013-10-19 18:58:00,
2013-10-19 15:04:00,48.7,38.2,29.67,SW,232,3.0,8.0,67,0.00,,,0.01,90,Wunderground v.1.15,2013-10-19 19:04:00,
2013-10-19 15:09:00,48.7,38.6,29.66,South,180,3.0,8.0,68,0.00,,,0.01,90,Wunderground v.1.15,2013-10-19 19:09:00,
2013-10-19 15:15:00,48.9,38.4,29.66,SSW,197,3.0,7.0,67,0.00,,,0.01,72,Wunderground v.1.15,2013-10-19 19:15:00,
2013-10-19 15:20:00,49.0,37.7,29.66,SSW,192,3.0,6.0,65,0.00,,,0.01,42,Wunderground v.1.15,2013-10-19 19:20:00,
2013-10-19 15:26:00,49.1,37.0,29.66,SW,217,3.0,6.0,63,0.00,,,0.01,47,Wunderground v.1.15,2013-10-19 19:26:00,
2013-10-19 15:32:00,49.1,37.4,29.66,SSW,207,3.0,3.0,64,0.00,,,0.01,42,Wunderground v.1.15,2013-10-19 19:32:00,
2013-10-19 15:37:00,49.2,37.1,29.66,SW,217,3.0,6.0,63,0.00,,,0.01,49,Wunderground v.1.15,2013-10-19 19:37:00,
2013-10-19 15:43:00,49.2,37.5,29.66,SSW,203,4.0,7.0,64,0.00,,,0.01,39,Wunderground v.1.15,2013-10-19 19:43:00,
2013-10-19 15:49:00,49.2,37.9,29.66,South,189,4.0,7.0,65,0.00,,,0.01,39,Wunderground v.1.15,2013-10-19 19:49:00,
2013-10-19 15:54:00,49.1,37.0,29.67,SSW,211,4.0,6.0,63,0.00,,,0.02,39,Wunderground v.1.15,2013-10-19 19:54:00,
2013-10-19 16:00:00,49.0,38.1,29.66,SW,218,5.0,5.0,66,0.00,,,0.02,39,Wunderground v.1.15,2013-10-19 20:00:00,
2013-10-19 16:05:00,49.1,37.4,29.66,SSW,194,4.0,12.0,64,0.00,,,0.02,39,Wunderground v.1.15,2013-10-19 20:05:00,
2013-10-19 16:11:00,49.1,37.8,29.66,SSW,192,5.0,5.0,65,0.00,,,0.02,39,Wunderground v.1.15,2013-10-19 20:11:00,
2013-10-19 16:16:00,49.2,38.7,29.66,SSW,202,4.0,5.0,67,0.00,,,0.02,37,Wunderground v.1.15,2013-10-19 20:16:00,
2013-10-19 16:22:00,49.2,38.3,29.67,SSW,194,2.0,5.0,66,0.00,,,0.02,37,Wunderground v.1.15,2013-10-19 20:22:00,
2013-10-19 16:28:00,49.2,37.5,29.67,WSW,253,2.0,6.0,64,0.00,,,0.02,37,Wunderground v.1.15,2013-10-19 20:28:00,
2013-10-19 16:33:00,49.0,36.9,29.67,SW,220,2.0,6.0,63,0.00,,,0.02,39,Wunderground v.1.15,2013-10-19 20:33:00,
2013-10-19 16:39:00,48.8,37.6,29.67,SSW,193,3.0,8.0,65,0.00,,,0.02,40,Wunderground v.1.15,2013-10-19 20:39:00,
2013-10-19 16:44:00,48.6,37.7,29.67,SSW,199,4.0,7.0,66,0.00,,,0.02,42,Wunderground v.1.15,2013-10-19 20:44:00,
2013-10-19 16:50:00,48.6,38.1,29.67,WSW,241,2.0,2.0,67,0.00,,,0.02,37,Wunderground v.1.15,2013-10-19 20:50:00,
2013-10-19 16:55:00,48.5,37.3,29.67,SSW,192,2.0,6.0,65,0.00,,,0.02,35,Wunderground v.1.15,2013-10-19 20:55:00,
2013-10-19 17:01:00,48.4,37.2,29.67,SSW,210,3.0,3.0,65,0.00,,,0.02,42,Wunderground v.1.15,2013-10-19 21:01:00,
2013-10-19 17:06:00,48.4,37.2,29.67,SW,227,3.0,6.0,65,0.00,,,0.02,40,Wunderground v.1.15,2013-10-19 21:06:00,
2013-10-19 17:12:00,48.2,37.0,29.67,SW,224,2.0,3.0,65,0.00,,,0.02,28,Wunderground v.1.15,2013-10-19 21:12:00,
2013-10-19 17:18:00,48.0,36.8,29.67,SSW,211,2.0,6.0,65,0.00,,,0.02,51,Wunderground v.1.15,2013-10-19 21:18:00,
2013-10-19 17:24:00,47.9,36.3,29.67,SSW,200,3.0,5.0,64,0.00,,,0.02,56,Wunderground v.1.15,2013-10-19 21:24:00,
2013-10-19 17:30:00,48.1,36.9,29.67,SSW,195,2.0,5.0,65,0.00,,,0.02,33,Wunderground v.1.15,2013-10-19 21:30:00,
2013-10-19 17:35:00,47.9,37.1,29.67,SSW,205,4.0,6.0,66,0.00,,,0.02,32,Wunderground v.1.15,2013-10-19 21:35:00,
2013-10-19 17:41:00,47.6,37.2,29.67,SW,236,3.0,3.0,67,0.00,,,0.02,32,Wunderground v.1.15,2013-10-19 21:41:00,
2013-10-19 17:46:00,47.4,37.4,29.67,SSW,212,2.0,3.0,68,0.00,,,0.02,32,Wunderground v.1.15,2013-10-19 21:46:00,
2013-10-19 17:52:00,47.4,37.7,29.67,SW,228,2.0,2.0,69,0.00,,,0.02,42,Wunderground v.1.15,2013-10-19 21:52:00,
2013-10-19 17:58:00,47.4,37.0,29.67,SW,225,2.0,4.0,67,0.00,,,0.02,33,Wunderground v.1.15,2013-10-19 21:58:00,
2013-10-19 18:03:00,47.3,36.5,29.67,SW,224,2.0,5.0,66,0.00,,,0.02,21,Wunderground v.1.15,2013-10-19 22:03:00,
2013-10-19 18:09:00,47.2,36.8,29.67,SSW,200,3.0,6.0,67,0.00,,,0.02,18,Wunderground v.1.15,2013-10-19 22:09:00,
2013-10-19 18:14:00,47.1,36.7,29.67,SW,234,2.0,3.0,67,0.00,,,0.02,18,Wunderground v.1.15,2013-10-19 22:14:00,
2013-10-19 18:20:00,47.0,37.0,29.67,South,184,1.0,1.0,68,0.00,,,0.02,25,Wunderground v.1.15,2013-10-19 22:20:00,
2013-10-19 18:26:00,46.9,36.5,29.68,SW,231,2.0,5.0,67,0.00,,,0.02,9,Wunderground v.1.15,2013-10-19 22:26:00,
2013-10-19 18:32:00,46.7,36.7,29.68,SSW,202,1.0,4.0,68,0.00,,,0.02,5,Wunderground v.1.15,2013-10-19 22:32:00,
2013-10-19 18:37:00,46.5,36.5,29.68,South,175,1.0,4.0,68,0.00,,,0.02,0,Wunderground v.1.15,2013-10-19 22:37:00,
2013-10-19 18:43:00,46.3,36.3,29.68,South,182,1.0,2.0,68,0.00,,,0.02,0,Wunderground v.1.15,2013-10-19 22:43:00,
2013-10-19 18:49:00,46.1,36.5,29.68,SSW,193,0.0,4.0,69,0.00,,,0.02,0,Wunderground v.1.15,2013-10-19 22:49:00,
2013-10-19 18:54:00,45.9,36.3,29.68,South,184,1.0,3.0,69,0.00,,,0.02,0,Wunderground v.1.15,2013-10-19 22:54:00,
2013-10-19 19:00:00,45.7,36.5,29.68,South,187,1.0,1.0,70,0.00,,,0.02,0,Wunderground v.1.15,2013-10-19 23:00:00,
2013-10-19 19:06:00,45.5,36.3,29.68,South,184,1.0,6.0,70,0.00,,,0.02,0,Wunderground v.1.15,2013-10-19 23:06:00,
2013-10-19 19:12:00,45.4,36.5,29.68,SSW,194,1.0,1.0,71,0.00,,,0.02,0,Wunderground v.1.15,2013-10-19 23:12:00,
2013-10-19 19:17:00,45.3,36.8,29.68,SSE,165,0.0,1.0,72,0.00,,,0.02,0,Wunderground v.1.15,2013-10-19 23:17:00,
2013-10-19 19:23:00,45.2,36.7,29.68,South,172,0.0,2.0,72,0.00,,,0.02,0,Wunderground v.1.15,2013-10-19 23:23:00,
2013-10-19 19:28:00,45.0,36.2,29.68,SSE,152,1.0,6.0,71,0.00,,,0.02,0,Wunderground v.1.15,2013-10-19 23:28:00,
2013-10-19 19:34:00,45.0,36.2,29.68,South,190,1.0,1.0,71,0.00,,,0.02,0,Wunderground v.1.15,2013-10-19 23:34:00,
2013-10-19 19:40:00,44.9,36.4,29.69,South,169,1.0,1.0,72,0.00,,,0.02,0,Wunderground v.1.15,2013-10-19 23:40:00,
2013-10-19 19:46:00,44.9,36.1,29.69,South,180,2.0,5.0,71,0.00,,,0.02,0,Wunderground v.1.15,2013-10-19 23:46:00,
2013-10-19 19:51:00,44.8,36.0,29.69,South,182,3.0,3.0,71,0.00,,,0.02,0,Wunderground v.1.15,2013-10-19 23:51:00,
2013-10-19 19:57:00,44.7,36.2,29.69,South,177,2.0,4.0,72,0.00,,,0.02,0,Wunderground v.1.15,2013-10-19 23:57:00,
2013-10-19 20:03:00,44.6,36.5,29.69,South,176,1.0,4.0,73,0.00,,,0.02,0,Wunderground v.1.15,2013-10-20 00:03:00,
2013-10-19 20:08:00,44.6,36.8,29.70,South,175,2.0,5.0,74,0.00,,,0.02,0,Wunderground v.1.15,2013-10-20 00:08:00,
2013-10-19 20:14:00,44.5,36.7,29.70,South,184,2.0,5.0,74,0.00,,,0.02,0,Wunderground v.1.15,2013-10-20 00:14:00,
2013-10-19 20:20:00,44.4,36.6,29.70,South,181,2.0,2.0,74,0.00,,,0.02,0,Wunderground v.1.15,2013-10-20 00:20:00,
2013-10-19 20:26:00,44.3,36.9,29.70,South,181,1.0,5.0,75,0.00,,,0.02,0,Wunderground v.1.15,2013-10-20 00:26:00,
2013-10-19 20:32:00,44.3,36.9,29.70,South,180,1.0,1.0,75,0.00,,,0.02,0,Wunderground v.1.15,2013-10-20 00:32:00,
2013-10-19 20:37:00,44.3,36.9,29.70,South,175,2.0,5.0,75,0.00,,,0.02,0,Wunderground v.1.15,2013-10-20 00:37:00,
2013-10-19 20:43:00,44.3,37.2,29.70,South,181,3.0,3.0,76,0.00,,,0.02,0,Wunderground v.1.15,2013-10-20 00:43:00,
2013-10-19 20:49:00,44.4,37.0,29.70,South,185,2.0,3.0,75,0.00,,,0.02,0,Wunderground v.1.15,2013-10-20 00:49:00,
2013-10-19 20:55:00,44.4,37.0,29.70,South,186,2.0,6.0,75,0.00,,,0.02,0,Wunderground v.1.15,2013-10-20 00:55:00,
2013-10-19 21:01:00,44.4,37.3,29.70,SSE,165,1.0,1.0,76,0.00,,,0.02,0,Wunderground v.1.15,2013-10-20 01:01:00,
2013-10-19 21:06:00,44.2,37.1,29.70,SSE,168,0.0,4.0,76,0.00,,,0.02,0,Wunderground v.1.15,2013-10-20 01:06:00,
2013-10-19 21:12:00,43.9,36.8,29.70,SSE,168,0.0,1.0,76,0.00,,,0.02,0,Wunderground v.1.15,2013-10-20 01:12:00,
2013-10-19 21:18:00,43.5,36.8,29.70,SSE,168,0.0,1.0,77,0.00,,,0.02,0,Wunderground v.1.15,2013-10-20 01:18:00,
2013-10-19 21:24:00,43.3,36.9,29.70,SSE,168,0.0,1.0,78,0.00,,,0.02,0,Wunderground v.1.15,2013-10-20 01:24:00,
2013-10-19 21:30:00,43.3,36.9,29.70,SSE,168,0.0,1.0,78,0.00,,,0.02,0,Wunderground v.1.15,2013-10-20 01:30:00,
2013-10-19 21:36:00,43.1,36.4,29.70,SSE,168,0.0,1.0,77,0.00,,,0.02,0,Wunderground v.1.15,2013-10-20 01:36:00,
2013-10-19 21:42:00,42.7,36.0,29.70,SSE,168,0.0,1.0,77,0.00,,,0.02,0,Wunderground v.1.15,2013-10-20 01:42:00,
2013-10-19 21:47:00,42.3,35.9,29.70,SSE,168,0.0,1.0,78,0.00,,,0.02,0,Wunderground v.1.15,2013-10-20 01:47:00,
2013-10-19 21:53:00,41.8,36.1,29.70,SSE,168,0.0,1.0,80,0.00,,,0.02,0,Wunderground v.1.15,2013-10-20 01:53:00,
2013-10-19 21:59:00,41.5,36.1,29.70,SSE,168,0.0,1.0,81,0.00,,,0.02,0,Wunderground v.1.15,2013-10-20 01:59:00,
2013-10-19 22:05:00,41.1,36.0,29.70,SSE,168,0.0,1.0,82,0.00,,,0.02,0,Wunderground v.1.15,2013-10-20 02:05:00,
2013-10-19 22:11:00,40.8,36.0,29.70,SSE,168,0.0,1.0,83,0.00,,,0.02,0,Wunderground v.1.15,2013-10-20 02:11:00,
2013-10-19 22:17:00,40.6,35.8,29.71,SSE,168,0.0,1.0,83,0.00,,,0.02,0,Wunderground v.1.15,2013-10-20 02:17:00,
2013-10-19 22:23:00,40.4,35.9,29.71,SSE,168,0.0,1.0,84,0.00,,,0.02,0,Wunderground v.1.15,2013-10-20 02:23:00,
2013-10-19 22:29:00,40.0,35.6,29.71,SSE,168,0.0,1.0,84,0.00,,,0.02,0,Wunderground v.1.15,2013-10-20 02:29:00,
2013-10-19 22:34:00,39.7,35.3,29.71,SSE,168,0.0,1.0,84,0.00,,,0.02,0,Wunderground v.1.15,2013-10-20 02:34:00,
2013-10-19 22:40:00,39.5,35.4,29.71,SSE,168,0.0,1.0,85,0.00,,,0.02,0,Wunderground v.1.15,2013-10-20 02:40:00,
2013-10-19 22:46:00,39.2,35.1,29.71,SSE,168,0.0,1.0,85,0.00,,,0.02,0,Wunderground v.1.15,2013-10-20 02:46:00,
2013-10-19 22:51:00,38.9,34.8,29.71,SSE,168,0.0,1.0,85,0.00,,,0.02,0,Wunderground v.1.15,2013-10-20 02:51:00,
2013-10-19 22:57:00,38.8,35.0,29.71,SSE,168,0.0,1.0,86,0.00,,,0.02,0,Wunderground v.1.15,2013-10-20 02:57:00,
2013-10-19 23:03:00,38.6,34.8,29.71,SSE,168,0.0,1.0,86,0.00,,,0.02,0,Wunderground v.1.15,2013-10-20 03:03:00,
2013-10-19 23:09:00,38.4,34.6,29.71,SSE,168,0.0,1.0,86,0.00,,,0.02,0,Wunderground v.1.15,2013-10-20 03:09:00,
2013-10-19 23:14:00,38.2,34.7,29.71,SSE,168,0.0,1.0,87,0.00,,,0.02,0,Wunderground v.1.15,2013-10-20 03:14:00,
2013-10-19 23:20:00,38.0,34.5,29.71,SSE,168,0.0,1.0,87,0.00,,,0.02,0,Wunderground v.1.15,2013-10-20 03:20:00,
2013-10-19 23:26:00,37.8,34.3,29.71,SSE,168,0.0,1.0,87,0.00,,,0.02,0,Wunderground v.1.15,2013-10-20 03:26:00,
2013-10-19 23:32:00,37.6,34.1,29.71,SSE,168,0.0,1.0,87,0.00,,,0.02,0,Wunderground v.1.15,2013-10-20 03:32:00,
2013-10-19 23:37:00,37.4,34.2,29.71,SSE,168,0.0,1.0,88,0.00,,,0.02,0,Wunderground v.1.15,2013-10-20 03:37:00,
2013-10-19 23:43:00,37.3,34.1,29.71,SSE,168,0.0,1.0,88,0.00,,,0.02,0,Wunderground v.1.15,2013-10-20 03:43:00,
2013-10-19 23:49:00,37.3,34.4,29.71,SSE,168,0.0,1.0,89,0.00,,,0.02,0,Wunderground v.1.15,2013-10-20 03:49:00,
2013-10-19 23:55:00,37.3,34.4,29.71,SSE,168,0.0,1.0,89,0.00,,,0.02,0,Wunderground v.1.15,2013-10-20 03:55:00,